GW6303 Weather Reports


Display with metric or nautical units.
time (UTC)temp
F
wind
direction
speed
MPH
gust
MPH
rain 1hr
in
rain 24hr
in
rain mn
in
humidity
%
barometer
mb
20260506211545 65 208 0.0 0.0 0.00 0.18 0.18 85 1008.4
20260506211042 65 194 0.0 1.0 0.00 0.18 0.18 85 1008.5
20260506210542 65 227 0.0 3.0 0.00 0.18 0.18 85 1008.4
20260506210042 65 198 0.0 3.0 0.00 0.18 0.18 85 1008.4
20260506205542 65 193 0.0 4.0 0.00 0.18 0.18 85 1008.5
20260506205042 65 186 0.0 4.0 0.00 0.18 0.18 85 1008.4
20260506204542 65 198 0.0 2.0 0.00 0.18 0.18 85 1008.4
20260506204041 65 198 0.0 3.0 0.00 0.18 0.18 86 1008.3
20260506203541 65 191 0.0 3.0 0.00 0.18 0.18 87 1008.3
20260506203045 64 193 0.0 2.0 0.00 0.18 0.18 88 1008.3
20260506202544 64 199 0.0 3.0 0.00 0.18 0.18 88 1008.3
20260506202041 64 204 0.0 4.0 0.00 0.18 0.18 87 1008.2
20260506201541 64 207 0.0 4.0 0.00 0.18 0.18 87 1008.3
20260506201043 64 198 0.0 3.0 0.00 0.18 0.18 88 1008.3
20260506200540 64 175 0.0 3.0 0.00 0.18 0.18 88 1008.4
20260506200101 64 183 0.0 2.0 0.00 0.18 0.18 90 1008.3
20260506195539 63 190 0.0 2.0 0.00 0.18 0.18 89 1008.4
20260506195039 63 191 0.0 2.0 0.00 0.18 0.18 90 1008.5
20260506194540 62 198 0.0 2.0 0.00 0.18 0.18 90 1008.5
20260506194038 62 193 0.0 5.0 0.00 0.18 0.18 91 1008.6
20260506193540 62 165 1.0 5.0 0.00 0.18 0.18 91 1008.6
20260506193037 62 229 0.0 2.0 0.00 0.18 0.18 92 1008.7
20260506192536 62 252 0.0 2.0 0.00 0.18 0.18 92 1008.8
20260506192038 62 194 0.0 2.0 0.00 0.18 0.18 92 1008.9
20260506191537 62 231 0.0 2.0 0.00 0.18 0.18 92 1008.8
20260506191036 62 205 0.0 2.0 0.00 0.18 0.18 92 1009.0
20260506190535 62 206 0.0 1.0 0.00 0.18 0.18 92 1008.9
20260506190036 62 191 0.0 2.0 0.00 0.18 0.18 92 1009.0
20260506185534 62 200 0.0 3.0 0.00 0.18 0.18 92 1009.0
20260506185034 62 204 0.0 3.0 0.00 0.18 0.18 92 1009.0
20260506184534 62 203 0.0 4.0 0.00 0.18 0.18 91 1009.1
20260506184036 61 173 0.0 4.0 0.00 0.18 0.18 92 1009.1
20260506183534 61 213 0.0 3.0 0.00 0.18 0.18 91 1009.1
20260506183034 61 205 0.0 2.0 0.00 0.18 0.18 91 1009.0
20260506182533 61 211 0.0 4.0 0.00 0.18 0.18 92 1009.1
20260506182032 61 205 0.0 4.0 0.00 0.18 0.18 91 1009.1
20260506181536 61 144 0.0 3.0 0.00 0.18 0.18 92 1009.2
20260506181031 61 179 0.0 2.0 0.00 0.18 0.18 91 1009.2
20260506180534 61 198 0.0 2.0 0.00 0.18 0.18 91 1009.2
20260506180039 61 185 0.0 4.0 0.00 0.18 0.18 91 1009.4
20260506175532 61 206 0.0 4.0 0.00 0.18 0.18 91 1009.3
20260506175029 61 199 0.0 4.0 0.00 0.18 0.18 91 1009.3
20260506174530 61 142 0.0 4.0 0.00 0.18 0.18 91 1009.4
20260506174029 61 195 0.0 5.0 0.00 0.18 0.18 91 1009.3
20260506173529 61 188 0.0 5.0 0.00 0.18 0.18 92 1009.4
20260506173031 61 235 0.0 4.0 0.00 0.18 0.18 92 1009.4
20260506172528 62 172 0.0 2.0 0.01 0.18 0.18 92 1009.5
20260506172034 62 200 0.0 2.0 0.01 0.18 0.18 91 1009.7
20260506171544 62 250 0.0 2.0 0.02 0.18 0.18 92 1009.6
20260506171028 62 210 0.0 4.0 0.02 0.18 0.18 92 1009.5
20260506170528 62 218 0.0 7.0 0.03 0.18 0.18 92 1009.4
20260506170027 63 212 0.0 7.0 0.04 0.18 0.18 92 1009.5
20260506165528 62 181 1.0 5.0 0.05 0.18 0.18 92 1009.4
20260506165027 62 205 0.0 3.0 0.06 0.18 0.18 93 1009.4
20260506164527 62 186 0.0 2.0 0.07 0.18 0.18 93 1009.5
20260506164026 61 178 0.0 3.0 0.08 0.18 0.18 93 1009.6
20260506163527 61 178 0.0 6.0 0.09 0.18 0.18 93 1009.5
20260506163031 61 198 0.0 6.0 0.10 0.18 0.18 92 1009.6
20260506162526 61 184 0.0 3.0 0.10 0.17 0.17 93 1009.8
20260506162024 61 199 0.0 3.0 0.11 0.17 0.17 92 1010.1
20260506161535 61 182 0.0 2.0 0.11 0.16 0.16 92 1010.5
20260506161023 61 174 0.0 1.0 0.12 0.16 0.16 92 1010.6
20260506160527 61 185 0.0 1.0 0.11 0.15 0.15 92 1010.8
20260506160025 61 178 0.0 1.0 0.10 0.14 0.14 91 1010.9
20260506155521 61 195 0.0 1.0 0.10 0.13 0.13 90 1011.1
20260506155021 62 208 0.0 2.0 0.10 0.12 0.12 90 1011.0
20260506154520 62 221 0.0 2.0 0.09 0.11 0.11 90 1010.9
20260506154019 62 202 0.0 1.0 0.09 0.10 0.10 89 1010.8
20260506153519 62 205 0.0 2.0 0.09 0.09 0.09 88 1011.0
20260506153017 63 205 0.0 2.0 0.08 0.08 0.08 88 1011.1
20260506152518 63 193 0.0 1.0 0.06 0.06 0.06 88 1011.1
20260506152017 63 198 0.0 0.0 0.06 0.06 0.06 88 1011.0
20260506151517 63 197 0.0 3.0 0.05 0.05 0.05 87 1010.9
20260506151015 63 212 0.0 2.0 0.04 0.04 0.04 87 1010.9
20260506150515 63 207 0.0 2.0 0.04 0.04 0.04 86 1010.7
20260506150020 63 188 0.0 2.0 0.03 0.03 0.03 86 1010.7
20260506145513 63 199 0.0 2.0 0.03 0.03 0.03 85 1010.7
20260506145014 64 209 0.0 2.0 0.02 0.02 0.02 83 1010.8
20260506144514 64 208 0.0 2.0 0.01 0.01 0.01 81 1011.0
20260506144013 65 193 0.0 3.0 0.01 0.01 0.01 81 1011.0
20260506143514 65 217 0.0 3.0 0.00 0.00 0.00 79 1011.0
20260506143013 66 195 0.0 4.0 0.00 0.00 0.00 78 1011.1
20260506142512 66 191 0.0 4.0 0.00 0.00 0.00 77 1011.0
20260506142013 67 176 0.0 5.0 0.00 0.00 0.00 75 1011.0
20260506141513 67 198 0.0 6.0 0.00 0.00 0.00 74 1011.0
20260506141012 68 233 1.0 6.0 0.00 0.00 0.00 73 1010.8
20260506140512 68 207 0.0 4.0 0.00 0.00 0.00 74 1010.9
20260506140011 68 203 0.0 4.0 0.00 0.00 0.00 73 1010.6
20260506135510 67 238 0.0 4.0 0.00 0.00 0.00 74 1010.4
20260506135015 67 79 0.0 5.0 0.00 0.00 0.00 75 1010.5
20260506134519 66 198 0.0 6.0 0.00 0.00 0.00 76 1010.7
20260506134009 66 185 0.0 8.0 0.00 0.00 0.00 75 1010.9
20260506133508 66 198 1.0 8.0 0.00 0.00 0.00 75 1010.8
20260506133008 66 167 0.0 3.0 0.00 0.00 0.00 76 1010.8
20260506132509 66 203 0.0 3.0 0.00 0.00 0.00 76 1010.9
20260506132008 66 183 0.0 5.0 0.00 0.00 0.00 76 1011.0
20260506131509 66 191 0.0 5.0 0.00 0.00 0.00 76 1011.1
20260506131007 66 228 0.0 4.0 0.00 0.00 0.00 76 1011.2
20260506130507 66 191 0.0 3.0 0.00 0.00 0.00 77 1011.3
20260506130008 66 145 1.0 3.0 0.00 0.00 0.00 76 1011.2
20260506125506 66 206 0.0 4.0 0.00 0.00 0.00 76 1011.2
20260506125006 65 236 0.0 4.0 0.00 0.00 0.00 77 1011.2
20260506124511 65 220 0.0 5.0 0.00 0.00 0.00 78 1011.0
20260506124005 65 201 0.0 6.0 0.00 0.00 0.00 78 1011.1
20260506123505 65 163 0.0 6.0 0.00 0.00 0.00 78 1011.2
20260506123006 64 108 1.0 5.0 0.00 0.00 0.00 78 1011.0
20260506122506 64 188 1.0 4.0 0.00 0.00 0.00 78 1011.0
20260506122006 64 30 0.0 5.0 0.00 0.00 0.00 79 1010.9
20260506121509 64 184 0.0 5.0 0.00 0.00 0.00 79 1010.9
20260506121004 64 199 0.0 4.0 0.00 0.00 0.00 79 1011.0
20260506120504 64 133 0.0 6.0 0.00 0.00 0.00 79 1011.0
20260506120009 64 162 1.0 6.0 0.00 0.00 0.00 79 1010.9
20260506115503 64 70 0.0 4.0 0.00 0.00 0.00 79 1011.0
20260506115003 64 173 0.0 3.0 0.00 0.00 0.00 79 1011.1
20260506114504 64 225 0.0 7.0 0.00 0.00 0.00 79 1010.9
20260506114002 64 141 2.0 7.0 0.00 0.00 0.00 79 1011.0
20260506113502 64 205 0.0 5.0 0.00 0.00 0.00 79 1010.9
20260506113005 64 210 0.0 10.0 0.00 0.00 0.00 80 1010.9
20260506112503 64 258 0.0 6.0 0.00 0.00 0.00 80 1011.0
20260506112003 64 207 0.0 2.0 0.00 0.00 0.00 80 1011.1
20260506111501 64 198 0.0 2.0 0.00 0.00 0.00 80 1011.0
20260506111100 63 165 0.0 6.0 0.00 0.00 0.00 80 1011.0
20260506111001 63 229 0.0 6.0 0.00 0.00 0.00 80 1010.9
20260506110600 63 134 0.0 5.0 0.00 0.00 0.00 80 1010.8
20260506110100 63 165 0.0 5.0 0.00 0.00 0.00 80 1010.9
20260506105601 63 193 0.0 5.0 0.00 0.00 0.00 81 1011.0
20260506105100 63 168 0.0 6.0 0.00 0.00 0.00 81 1010.8
20260506104606 63 181 0.0 10.0 0.00 0.00 0.00 81 1010.8
20260506104059 63 186 1.0 10.0 0.00 0.00 0.00 81 1010.8
20260506103559 63 162 2.0 5.0 0.00 0.00 0.00 81 1010.8
20260506103106 63 205 0.0 3.0 0.00 0.00 0.00 81 1010.7
20260506102559 63 188 0.0 3.0 0.00 0.00 0.00 81 1010.6
20260506102058 63 122 0.0 3.0 0.00 0.00 0.00 81 1010.8
20260506101558 63 240 0.0 3.0 0.00 0.00 0.00 81 1010.6
20260506101057 63 193 0.0 2.0 0.00 0.00 0.00 81 1010.7
20260506100557 63 215 0.0 6.0 0.00 0.00 0.00 81 1010.8
20260506100056 63 224 0.0 6.0 0.00 0.00 0.00 81 1010.8
20260506095556 63 206 0.0 4.0 0.00 0.00 0.00 80 1010.8
20260506095055 63 153 0.0 4.0 0.00 0.00 0.00 80 1010.7
20260506094555 64 214 1.0 6.0 0.00 0.00 0.00 80 1010.6
20260506094054 64 146 1.0 6.0 0.00 0.00 0.00 80 1010.4
20260506093557 64 177 0.0 6.0 0.00 0.00 0.00 80 1010.5
20260506093059 64 223 0.0 4.0 0.00 0.00 0.00 80 1010.4
20260506092554 64 195 1.0 4.0 0.00 0.00 0.00 80 1010.4
20260506092056 64 131 0.0 4.0 0.00 0.00 0.00 80 1010.5
20260506091553 64 146 0.0 5.0 0.00 0.00 0.00 80 1010.5
20260506091053 64 174 0.0 5.0 0.00 0.00 0.00 80 1010.6
20260506090552 64 181 0.0 4.0 0.00 0.00 0.00 80 1010.7
20260506090051 64 159 0.0 3.0 0.00 0.00 0.00 80 1010.8
20260506085551 64 101 0.0 3.0 0.00 0.00 0.00 81 1010.7
20260506085050 64 181 0.0 5.0 0.00 0.00 0.00 80 1010.8
20260506084550 64 205 0.0 3.0 0.00 0.00 0.00 80 1010.8
20260506084053 64 176 0.0 8.0 0.00 0.00 0.00 80 1010.8
20260506083550 64 229 0.0 8.0 0.00 0.00 0.00 80 1010.7
20260506083108 64 131 0.0 6.0 0.00 0.00 0.00 80 1010.7
20260506082549 64 212 1.0 6.0 0.00 0.00 0.00 80 1010.6
20260506082052 64 146 0.0 5.0 0.00 0.00 0.00 80 1010.7
20260506081551 64 214 0.0 5.0 0.00 0.00 0.00 80 1010.7
20260506081048 64 179 1.0 5.0 0.00 0.00 0.00 80 1010.6
20260506080547 64 150 0.0 5.0 0.00 0.00 0.00 79 1010.6
20260506073044 65 173 1.0 8.0 0.00 0.00 0.00 79 1010.7
20260506072543 65 140 0.0 11.0 0.00 0.00 0.00 78 1010.6
20260506072043 65 229 2.0 11.0 0.00 0.00 0.00 78 1010.8
20260506071545 65 153 1.0 7.0 0.00 0.00 0.00 78 1010.7
20260506071041 65 233 0.0 4.0 0.00 0.00 0.00 78 1010.8
20260506070541 65 217 0.0 2.0 0.00 0.00 0.00 77 1010.8
20260506062035 66 184 0.0 3.0 0.00 0.00 0.00 75 1011.2
20260506061539 66 180 0.0 4.0 0.00 0.00 0.00 74 1011.2
20260506061034 66 213 0.0 4.0 0.00 0.00 0.00 74 1011.2
20260506060534 66 201 0.0 3.0 0.00 0.00 0.00 74 1011.2
20260506051027 66 130 0.0 3.0 0.00 0.00 0.00 71 1011.8
20260506050627 66 185 0.0 3.0 0.00 0.00 0.00 71 1011.7
20260506045025 66 172 1.0 5.0 0.00 0.00 0.00 70 1011.8
20260506044524 67 177 0.0 4.0 0.00 0.00 0.00 69 1011.9
20260506044027 67 184 0.0 4.0 0.00 0.00 0.00 69 1011.8
20260506043522 67 169 0.0 5.0 0.00 0.00 0.00 68 1011.9
20260506043023 67 189 0.0 5.0 0.00 0.00 0.00 68 1011.8
20260506042523 67 107 0.0 4.0 0.00 0.00 0.00 68 1011.8
20260506042023 67 236 0.0 6.0 0.00 0.00 0.00 68 1011.7
20260506041522 67 68 1.0 6.0 0.00 0.00 0.00 68 1011.7
20260506041020 67 240 1.0 4.0 0.00 0.00 0.00 68 1011.8
20260506040523 67 192 0.0 4.0 0.00 0.00 0.00 67 1011.8
20260506040025 67 197 0.0 4.0 0.00 0.00 0.00 67 1011.7
20260506035519 67 258 0.0 4.0 0.00 0.00 0.00 67 1011.7
20260506035019 67 204 0.0 3.0 0.00 0.00 0.00 67 1011.8
20260506034519 67 186 0.0 6.0 0.00 0.00 0.00 66 1011.7
20260506034018 68 199 0.0 6.0 0.00 0.00 0.00 66 1011.7
20260506033522 67 169 1.0 5.0 0.00 0.00 0.00 66 1011.6
20260506033018 67 190 0.0 4.0 0.00 0.00 0.00 66 1011.6
20260506032518 68 205 0.0 4.0 0.00 0.00 0.00 66 1011.7
20260506032018 68 256 0.0 8.0 0.00 0.00 0.00 66 1011.5
20260506031527 68 183 0.0 8.0 0.00 0.00 0.00 66 1011.7
20260506031019 68 226 0.0 4.0 0.00 0.00 0.00 65 1011.6
20260506030519 68 173 0.0 4.0 0.00 0.00 0.00 65 1011.7
20260506030016 68 218 0.0 5.0 0.00 0.00 0.00 64 1011.7
20260506025520 69 159 0.0 6.0 0.00 0.00 0.00 64 1011.8
20260506025017 69 162 1.0 6.0 0.00 0.00 0.00 64 1011.7
20260506024532 69 211 1.0 9.0 0.00 0.00 0.00 64 1011.9
20260506024017 69 174 1.0 5.0 0.00 0.00 0.00 63 1011.9
20260506023516 69 221 0.0 5.0 0.00 0.00 0.00 63 1011.9
20260506023016 70 176 0.0 7.0 0.00 0.00 0.00 62 1012.0
20260506022516 70 75 0.0 7.0 0.00 0.00 0.00 62 1011.8
20260506022016 70 245 1.0 6.0 0.00 0.00 0.00 61 1011.7
20260506021516 70 122 0.0 6.0 0.00 0.00 0.00 60 1011.8
20260506021015 70 171 0.0 5.0 0.00 0.00 0.00 59 1011.7
20260506020514 71 219 0.0 5.0 0.00 0.00 0.00 58 1011.7
20260506020015 71 188 0.0 7.0 0.00 0.00 0.00 57 1011.7
20260506015516 71 226 1.0 7.0 0.00 0.00 0.00 56 1011.7
20260506015016 71 145 0.0 4.0 0.00 0.00 0.00 55 1011.7
20260506014515 72 167 0.0 4.0 0.00 0.00 0.00 54 1011.7
20260506014015 72 194 0.0 4.0 0.00 0.00 0.00 53 1011.5
20260506013514 72 210 0.0 2.0 0.00 0.00 0.00 52 1011.3
20260506013014 73 186 0.0 3.0 0.00 0.00 0.00 51 1011.4
20260506012514 73 177 0.0 4.0 0.00 0.00 0.00 51 1011.3
20260506012013 73 229 0.0 5.0 0.00 0.00 0.00 50 1011.3
20260506011530 73 177 0.0 5.0 0.00 0.00 0.00 49 1011.3
20260506011014 73 158 0.0 7.0 0.00 0.00 0.00 49 1011.2
20260506010514 74 167 1.0 7.0 0.00 0.00 0.00 49 1011.2
20260506010014 74 179 0.0 5.0 0.00 0.00 0.00 49 1011.1
20260506005513 74 229 1.0 6.0 0.00 0.00 0.00 49 1011.1
20260506005013 74 139 1.0 8.0 0.00 0.00 0.00 48 1011.1
20260506004512 74 180 2.0 8.0 0.00 0.00 0.00 48 1011.1
20260506004013 74 232 1.0 6.0 0.00 0.00 0.00 48 1010.9
20260506003512 74 168 2.0 6.0 0.00 0.00 0.00 48 1010.9
20260506003016 74 210 1.0 8.0 0.00 0.00 0.00 48 1010.8
20260506002518 74 186 1.0 8.0 0.00 0.00 0.00 49 1010.8
20260506002013 74 196 1.0 5.0 0.00 0.00 0.00 49 1010.7
20260506001512 75 195 0.0 8.0 0.00 0.00 0.00 49 1010.7
20260506001011 75 156 1.0 7.0 0.00 0.00 0.00 49 1010.5
20260506000516 75 205 0.0 6.0 0.00 0.00 0.00 49 1010.6
20260506000011 75 203 2.0 6.0 0.00 0.00 0.00 48 1010.6
20260505235512 75 167 1.0 8.0 0.00 0.00 0.00 48 1010.6
20260505235011 75 207 0.0 8.0 0.00 0.00 0.00 48 1010.5
20260505234524 75 189 0.0 5.0 0.00 0.00 0.00 48 1010.6
20260505234011 76 210 0.0 4.0 0.00 0.00 0.00 48 1010.4
20260505233510 76 198 0.0 4.0 0.00 0.00 0.00 48 1010.5
20260505233010 76 178 0.0 7.0 0.00 0.00 0.00 47 1010.6
20260505232513 76 210 1.0 7.0 0.00 0.00 0.00 46 1010.5
20260505232010 77 161 0.0 6.0 0.00 0.00 0.00 45 1010.4
20260505231510 77 205 0.0 8.0 0.00 0.00 0.00 44 1010.2
20260505231009 77 187 1.0 8.0 0.00 0.00 0.00 43 1010.2
20260505230509 78 183 0.0 7.0 0.00 0.00 0.00 42 1010.4
20260505230010 78 191 1.0 7.0 0.00 0.00 0.00 41 1010.3
20260505225513 79 255 0.0 6.0 0.00 0.00 0.00 41 1010.1
20260505225009 79 184 2.0 6.0 0.00 0.00 0.00 39 1010.1
20260505224508 80 217 1.0 8.0 0.00 0.00 0.00 38 1010.2
20260505224008 80 41 0.0 7.0 0.00 0.00 0.00 37 1010.0
20260505223509 81 193 0.0 4.0 0.00 0.00 0.00 37 1010.0
20260505223010 80 214 0.0 6.0 0.00 0.00 0.00 38 1009.9
20260505222512 80 217 1.0 6.0 0.00 0.00 0.00 38 1010.0
20260505222008 80 237 0.0 5.0 0.00 0.00 0.00 38 1009.9
20260505221508 79 191 0.0 6.0 0.00 0.00 0.00 39 1010.1
20260505221007 79 174 0.0 4.0 0.00 0.00 0.00 39 1010.1
20260505220507 79 215 0.0 4.0 0.00 0.00 0.00 38 1010.0
20260505220007 79 225 0.0 5.0 0.00 0.00 0.00 39 1010.1
20260505215508 80 205 0.0 5.0 0.00 0.00 0.00 38 1010.0
20260505215007 80 196 1.0 9.0 0.00 0.00 0.00 38 1009.9
20260505214511 81 143 1.0 9.0 0.00 0.00 0.00 38 1009.8
20260505214007 82 165 1.0 4.0 0.00 0.00 0.00 36 1009.6
20260505213509 81 211 0.0 5.0 0.00 0.00 0.00 35 1009.9
20260505213006 81 178 1.0 5.0 0.00 0.00 0.00 35 1009.9
20260505212506 81 179 0.0 11.0 0.00 0.00 0.00 36 1009.7
20260505212008 81 169 2.0 11.0 0.00 0.00 0.00 35 1009.7